createdAt,value
2018-06-15T00:00:54.683Z,15.40
2018-06-15T00:03:22.874Z,15.40
2018-06-15T00:05:51.070Z,15.30
2018-06-15T00:08:19.267Z,15.20
2018-06-15T00:10:47.459Z,15.20
2018-06-15T00:13:15.655Z,15.20
2018-06-15T00:15:43.830Z,15.20
2018-06-15T00:18:12.064Z,15.10
2018-06-15T00:20:40.259Z,14.90
2018-06-15T00:23:08.451Z,14.90
2018-06-15T00:25:36.628Z,14.90
2018-06-15T00:28:04.942Z,15.20
2018-06-15T00:30:33.125Z,15.10
2018-06-15T00:35:29.254Z,15.00
2018-06-15T00:40:25.388Z,15.00
2018-06-15T00:42:54.179Z,15.10
2018-06-15T00:47:50.316Z,15.00
2018-06-15T00:50:18.500Z,15.00
2018-06-15T00:52:46.704Z,15.10
2018-06-15T00:55:14.890Z,15.00
2018-06-15T00:57:46.308Z,15.00
2018-06-15T01:00:14.612Z,14.90
2018-06-15T01:02:42.944Z,14.90
2018-06-15T01:05:11.131Z,14.80
2018-06-15T01:07:39.354Z,14.70
2018-06-15T01:10:07.531Z,14.70
2018-06-15T01:12:35.706Z,14.60
2018-06-15T01:15:03.895Z,14.50
2018-06-15T01:17:32.125Z,14.40
2018-06-15T01:20:00.721Z,14.30
2018-06-15T01:22:28.900Z,14.30
2018-06-15T01:24:57.075Z,14.30
2018-06-15T01:27:25.470Z,14.30
2018-06-15T01:29:53.679Z,14.20
2018-06-15T01:34:49.819Z,14.10
2018-06-15T01:39:45.972Z,14.10
2018-06-15T01:42:14.170Z,14.20
2018-06-15T01:44:42.376Z,14.20
2018-06-15T01:47:10.576Z,14.10
2018-06-15T01:49:38.758Z,14.10
2018-06-15T01:52:06.982Z,14.10
2018-06-15T01:54:35.165Z,14.00
2018-06-15T01:57:03.362Z,14.00
2018-06-15T01:59:31.580Z,14.10
2018-06-15T02:01:59.759Z,14.10
2018-06-15T02:04:27.952Z,14.10
2018-06-15T02:06:56.155Z,14.10
2018-06-15T02:09:24.341Z,14.10
2018-06-15T02:11:52.590Z,14.10
2018-06-15T02:14:20.814Z,14.10
2018-06-15T02:19:17.011Z,14.10
2018-06-15T02:21:45.206Z,14.10
2018-06-15T02:24:13.392Z,14.20
2018-06-15T02:26:41.607Z,14.20
2018-06-15T02:29:09.807Z,14.20
2018-06-15T02:31:37.990Z,14.30
2018-06-15T02:34:06.171Z,14.30
2018-06-15T02:36:34.379Z,14.30
2018-06-15T02:39:02.574Z,14.30
2018-06-15T02:41:30.772Z,14.30
2018-06-15T02:43:58.979Z,14.30
2018-06-15T02:46:27.170Z,14.30
2018-06-15T02:51:23.338Z,14.10
2018-06-15T02:53:51.511Z,14.20
2018-06-15T02:56:19.726Z,14.20
2018-06-15T02:58:47.912Z,14.20
2018-06-15T03:01:16.122Z,14.20
2018-06-15T03:03:44.396Z,14.20
2018-06-15T03:06:12.626Z,14.30
2018-06-15T03:08:40.815Z,14.30
2018-06-15T03:11:08.986Z,14.20
2018-06-15T03:13:37.184Z,14.20
2018-06-15T03:18:33.360Z,14.30
2018-06-15T03:21:01.613Z,14.20
2018-06-15T03:23:29.798Z,14.30
2018-06-15T03:25:57.987Z,14.20
2018-06-15T03:28:26.170Z,14.30
2018-06-15T03:30:54.361Z,14.20
2018-06-15T03:33:22.556Z,14.10
2018-06-15T03:35:50.752Z,14.00
2018-06-15T03:38:18.947Z,14.00
2018-06-15T03:40:47.136Z,14.10
2018-06-15T03:43:15.327Z,14.00
2018-06-15T03:45:43.514Z,14.10
2018-06-15T03:48:11.712Z,14.20
2018-06-15T03:53:07.860Z,14.00
2018-06-15T03:55:36.056Z,14.00
2018-06-15T03:58:04.370Z,13.90
2018-06-15T04:00:32.548Z,13.80
2018-06-15T04:03:00.760Z,13.70
2018-06-15T04:05:28.950Z,13.60
2018-06-15T04:07:57.143Z,13.60
2018-06-15T04:10:25.315Z,13.70
2018-06-15T04:12:53.542Z,13.80
2018-06-15T04:15:21.723Z,13.80
2018-06-15T04:17:56.079Z,13.90
2018-06-15T04:20:24.268Z,13.90
2018-06-15T04:22:52.463Z,14.00
2018-06-15T04:25:20.641Z,14.00
2018-06-15T04:27:48.814Z,14.10
2018-06-15T04:30:17.004Z,14.20
2018-06-15T04:35:13.146Z,14.30
2018-06-15T04:40:09.374Z,14.30
2018-06-15T04:42:37.561Z,14.30
2018-06-15T04:45:05.765Z,14.20
2018-06-15T04:47:34.104Z,14.30
2018-06-15T04:50:02.351Z,14.30
2018-06-15T04:52:30.548Z,14.30
2018-06-15T04:54:58.715Z,14.30
2018-06-15T04:57:26.902Z,14.40
2018-06-15T04:59:55.089Z,14.30
2018-06-15T05:02:23.323Z,14.40
2018-06-15T05:04:51.719Z,14.70
2018-06-15T05:07:19.913Z,14.70
2018-06-15T05:09:48.100Z,14.80
2018-06-15T05:14:44.400Z,15.20
2018-06-15T05:17:12.606Z,15.30
2018-06-15T05:19:40.907Z,15.40
2018-06-15T05:22:09.205Z,15.50
2018-06-15T05:24:37.560Z,15.80
2018-06-15T05:27:05.770Z,16.10
2018-06-15T05:29:33.972Z,16.30
2018-06-15T05:32:02.150Z,16.70
2018-06-15T05:34:30.334Z,16.90
2018-06-15T05:39:26.468Z,17.10
2018-06-15T05:41:55.142Z,17.50
2018-06-15T05:46:51.728Z,17.60
2018-06-15T05:49:20.175Z,17.80
2018-06-15T05:51:48.717Z,17.80
2018-06-15T05:54:17.192Z,18.00
2018-06-15T05:56:45.588Z,18.10
2018-06-15T05:59:14.061Z,18.10
2018-06-15T06:01:42.258Z,18.30
2018-06-15T06:04:10.460Z,18.50
2018-06-15T06:06:38.652Z,18.50
2018-06-15T06:09:07.970Z,18.60
2018-06-15T06:11:36.159Z,18.80
2018-06-15T06:14:04.368Z,19.10
2018-06-15T06:16:32.574Z,19.20
2018-06-15T06:19:00.765Z,19.30
2018-06-15T06:21:28.960Z,19.30
2018-06-15T06:23:57.396Z,19.40
2018-06-15T06:28:53.557Z,19.60
2018-06-15T06:31:23.542Z,19.80
2018-06-15T06:33:52.028Z,20.00
2018-06-15T06:38:48.200Z,19.90
2018-06-15T06:41:16.386Z,20.30
2018-06-15T06:43:44.578Z,20.80
2018-06-15T06:46:12.789Z,20.30
2018-06-15T06:48:41.012Z,20.40
2018-06-15T06:53:37.171Z,20.60
2018-06-15T06:56:05.377Z,21.10
2018-06-15T06:58:33.622Z,21.20
2018-06-15T07:01:01.775Z,21.30
2018-06-15T07:03:29.968Z,21.60
2018-06-15T07:05:58.162Z,21.60
2018-06-15T07:08:26.364Z,21.80
2018-06-15T07:13:22.505Z,22.10
2018-06-15T07:15:50.684Z,22.00
2018-06-15T07:18:18.890Z,22.00
2018-06-15T07:20:47.108Z,22.30
2018-06-15T07:23:15.337Z,22.30
2018-06-15T07:25:43.545Z,22.50
2018-06-15T07:28:11.754Z,22.40
2018-06-15T07:30:39.996Z,22.40
2018-06-15T07:33:08.208Z,22.60
2018-06-15T07:35:36.405Z,22.60
2018-06-15T07:38:04.736Z,22.60
2018-06-15T07:40:32.936Z,22.60
2018-06-15T07:43:01.115Z,23.10
2018-06-15T07:45:29.320Z,22.90
2018-06-15T07:47:57.535Z,23.50
2018-06-15T07:50:25.751Z,22.90
2018-06-15T07:52:53.971Z,23.30
2018-06-15T07:55:22.174Z,23.30
2018-06-15T08:00:18.348Z,23.40
2018-06-15T08:02:46.545Z,23.30
2018-06-15T08:05:14.812Z,23.10
2018-06-15T08:07:43.030Z,23.20
2018-06-15T08:12:39.216Z,23.40
2018-06-15T08:15:07.596Z,23.40
2018-06-15T08:17:35.812Z,23.50
2018-06-15T08:20:04.023Z,23.50
2018-06-15T08:22:32.232Z,23.50
2018-06-15T08:25:00.434Z,23.70
2018-06-15T08:27:28.639Z,23.90
2018-06-15T08:32:24.803Z,24.00
2018-06-15T08:34:52.998Z,24.10
2018-06-15T08:37:21.207Z,24.10
2018-06-15T08:39:49.416Z,24.10
2018-06-15T08:42:17.633Z,24.20
2018-06-15T08:44:45.834Z,23.40
2018-06-15T08:52:09.992Z,24.10
2018-06-15T08:54:38.191Z,23.60
2018-06-15T08:57:06.432Z,23.60
2018-06-15T08:59:35.363Z,23.50
2018-06-15T09:02:03.933Z,23.60
2018-06-15T09:04:32.143Z,23.50
2018-06-15T09:07:00.360Z,23.60
2018-06-15T09:09:28.537Z,23.60
2018-06-15T09:11:56.724Z,23.80
2018-06-15T09:14:24.928Z,23.90
2018-06-15T09:16:53.152Z,24.00
2018-06-15T09:19:21.367Z,24.20
2018-06-15T09:21:49.564Z,24.40
2018-06-15T09:26:45.736Z,24.30
2018-06-15T09:29:13.939Z,24.10
2018-06-15T09:31:42.164Z,24.20
2018-06-15T09:36:38.652Z,24.30
2018-06-15T09:39:07.589Z,24.30
2018-06-15T09:41:35.788Z,24.10
2018-06-15T09:44:03.979Z,24.20
2018-06-15T09:46:32.205Z,23.90
2018-06-15T09:49:00.387Z,24.10
2018-06-15T09:51:28.586Z,24.30
2018-06-15T09:53:56.832Z,24.30
2018-06-15T09:56:25.016Z,24.60
2018-06-15T10:01:22.660Z,24.50
2018-06-15T10:03:50.851Z,24.60
2018-06-15T10:06:19.072Z,24.80
2018-06-15T10:08:47.268Z,24.80
2018-06-15T10:11:16.263Z,24.90
2018-06-15T10:13:44.467Z,24.70
2018-06-15T10:16:12.671Z,24.80
2018-06-15T10:18:40.856Z,24.80
2018-06-15T10:21:09.055Z,24.50
2018-06-15T10:23:37.283Z,24.30
2018-06-15T10:26:05.509Z,23.80
2018-06-15T10:28:33.691Z,23.70
2018-06-15T10:31:01.932Z,23.90
2018-06-15T10:33:30.118Z,23.90
2018-06-15T10:35:58.310Z,24.10
2018-06-15T10:38:26.517Z,24.30
2018-06-15T10:40:54.691Z,24.50
2018-06-15T10:43:22.883Z,24.50
2018-06-15T10:48:19.032Z,24.70
2018-06-15T10:50:47.253Z,24.50
2018-06-15T10:53:15.449Z,24.70
2018-06-15T10:55:43.668Z,24.80
2018-06-15T10:58:11.858Z,24.80
2018-06-15T11:00:40.056Z,24.80
2018-06-15T11:03:08.261Z,24.70
2018-06-15T11:05:36.468Z,24.60
2018-06-15T11:08:04.650Z,24.80
2018-06-15T11:10:32.880Z,24.90
2018-06-15T11:13:01.085Z,25.00
2018-06-15T11:15:29.289Z,25.10
2018-06-15T11:17:57.498Z,25.10
2018-06-15T11:20:25.694Z,25.00
2018-06-15T11:22:53.897Z,24.90
2018-06-15T11:25:22.102Z,24.90
2018-06-15T11:27:50.331Z,24.90
2018-06-15T11:30:18.534Z,24.70
2018-06-15T11:32:46.784Z,24.70
2018-06-15T11:35:14.996Z,24.70
2018-06-15T11:37:43.212Z,24.80
2018-06-15T11:42:39.396Z,25.00
2018-06-15T11:45:07.619Z,25.00
2018-06-15T11:47:36.063Z,25.00
2018-06-15T11:50:04.314Z,25.00
2018-06-15T11:52:32.519Z,25.10
2018-06-15T11:55:00.728Z,25.00
2018-06-15T11:59:56.865Z,25.10
2018-06-15T12:04:53.079Z,25.20
2018-06-15T12:07:21.283Z,25.20
2018-06-15T12:09:49.502Z,25.10
2018-06-15T12:12:17.717Z,25.10
2018-06-15T12:14:45.903Z,25.30
2018-06-15T12:17:14.120Z,25.20
2018-06-15T12:19:42.305Z,25.00
2018-06-15T12:22:10.520Z,25.00
2018-06-15T12:24:38.748Z,24.90
2018-06-15T12:27:07.036Z,24.70
2018-06-15T12:29:35.255Z,24.70
2018-06-15T12:32:03.477Z,24.80
2018-06-15T12:34:31.681Z,24.80
2018-06-15T12:36:59.999Z,24.50
2018-06-15T12:39:28.195Z,24.60
2018-06-15T12:41:56.423Z,24.70
2018-06-15T12:44:24.624Z,24.60
2018-06-15T12:46:52.798Z,24.60
2018-06-15T12:49:20.990Z,24.60
2018-06-15T12:51:49.199Z,24.30
2018-06-15T12:54:17.399Z,24.40
2018-06-15T12:56:45.572Z,24.60
2018-06-15T12:59:13.820Z,24.30
2018-06-15T13:01:42.107Z,24.50
2018-06-15T13:04:10.455Z,24.60
2018-06-15T13:06:38.676Z,24.60
2018-06-15T13:09:07.820Z,24.70
2018-06-15T13:11:36.019Z,24.90
2018-06-15T13:14:04.243Z,24.90
2018-06-15T13:16:32.463Z,25.00
2018-06-15T13:19:00.688Z,25.00
2018-06-15T13:21:29.141Z,24.90
2018-06-15T13:23:57.617Z,24.80
2018-06-15T13:26:26.099Z,24.80
2018-06-15T13:28:54.562Z,24.80
2018-06-15T13:31:23.060Z,24.80
2018-06-15T13:36:19.577Z,24.50
2018-06-15T13:38:48.005Z,24.60
2018-06-15T13:43:44.477Z,24.80
2018-06-15T13:46:12.892Z,24.90
2018-06-15T13:48:41.155Z,24.70
2018-06-15T13:51:09.563Z,24.70
2018-06-15T13:53:37.944Z,24.70
2018-06-15T13:58:34.341Z,24.80
2018-06-15T14:01:02.768Z,24.70
2018-06-15T14:03:31.073Z,24.80
2018-06-15T14:08:27.652Z,25.20
2018-06-15T14:10:56.002Z,25.20
2018-06-15T14:15:52.439Z,25.10
2018-06-15T14:18:20.790Z,25.00
2018-06-15T14:20:49.198Z,24.90
2018-06-15T14:25:45.521Z,24.80
2018-06-15T14:28:13.798Z,24.60
2018-06-15T14:30:42.061Z,24.60
2018-06-15T14:33:10.267Z,24.60
2018-06-15T14:35:38.467Z,24.40
2018-06-15T14:40:34.630Z,24.50
2018-06-15T14:43:02.832Z,24.40
2018-06-15T14:45:31.014Z,24.20
2018-06-15T14:47:59.268Z,24.20
2018-06-15T14:50:27.459Z,24.40
2018-06-15T14:52:55.757Z,24.70
2018-06-15T14:55:23.868Z,24.80
2018-06-15T14:57:52.075Z,24.80
2018-06-15T15:00:20.278Z,24.60
2018-06-15T15:02:48.468Z,24.50
2018-06-15T15:05:16.787Z,24.50
2018-06-15T15:07:44.982Z,24.40
2018-06-15T15:10:13.219Z,24.30
2018-06-15T15:12:41.435Z,24.40
2018-06-15T15:15:09.778Z,24.30
2018-06-15T15:17:37.967Z,24.30
2018-06-15T15:20:06.169Z,24.50
2018-06-15T15:22:34.458Z,24.40
2018-06-15T15:25:02.674Z,24.60
2018-06-15T15:27:30.896Z,24.50
2018-06-15T15:29:59.225Z,24.50
2018-06-15T15:32:27.414Z,24.50
2018-06-15T15:34:55.603Z,24.50
2018-06-15T15:37:23.817Z,24.50
2018-06-15T15:39:51.999Z,24.60
2018-06-15T15:42:20.662Z,24.60
2018-06-15T15:44:48.897Z,24.50
2018-06-15T15:47:17.142Z,24.40
2018-06-15T15:54:41.309Z,24.20
2018-06-15T15:57:10.583Z,24.20
2018-06-15T15:59:39.103Z,24.20
2018-06-15T16:02:07.304Z,24.20
2018-06-15T16:09:31.407Z,24.50
2018-06-15T16:14:27.551Z,24.40
2018-06-15T16:19:23.733Z,24.20
2018-06-15T16:21:51.946Z,24.10
2018-06-15T16:24:20.138Z,24.10
2018-06-15T16:29:16.270Z,23.90
2018-06-15T16:31:44.834Z,23.90
2018-06-15T16:34:13.289Z,24.00
2018-06-15T16:36:42.659Z,23.80
2018-06-15T16:39:11.181Z,23.80
2018-06-15T16:41:39.436Z,23.80
2018-06-15T16:44:07.632Z,23.70
2018-06-15T16:46:35.834Z,23.60
2018-06-15T16:49:04.059Z,23.50
2018-06-15T16:51:32.257Z,23.40
2018-06-15T16:54:00.469Z,23.50
2018-06-15T16:58:56.611Z,23.60
2018-06-15T17:01:24.793Z,23.60
2018-06-15T17:03:52.988Z,23.60
2018-06-15T17:06:21.338Z,23.60
2018-06-15T17:11:17.643Z,23.40
2018-06-15T17:13:45.848Z,23.40
2018-06-15T17:16:14.136Z,23.60
2018-06-15T17:18:43.324Z,23.40
2018-06-15T17:21:12.136Z,23.40
2018-06-15T17:23:40.929Z,23.50
2018-06-15T17:26:09.222Z,23.50
2018-06-15T17:28:37.585Z,23.40
2018-06-15T17:31:06.404Z,23.40
2018-06-15T17:33:34.803Z,23.10
2018-06-15T17:36:03.079Z,23.10
2018-06-15T17:38:31.267Z,23.10
2018-06-15T17:40:59.462Z,23.10
2018-06-15T17:43:27.998Z,23.00
2018-06-15T17:45:56.206Z,23.00
2018-06-15T17:48:24.395Z,23.00
2018-06-15T17:50:52.589Z,23.00
2018-06-15T17:53:20.787Z,22.90
2018-06-15T17:55:48.974Z,22.90
2018-06-15T17:58:17.196Z,22.90
2018-06-15T18:00:45.401Z,23.00
2018-06-15T18:03:13.641Z,23.00
2018-06-15T18:05:41.892Z,22.90
2018-06-15T18:08:10.078Z,22.70
2018-06-15T18:10:38.590Z,22.70
2018-06-15T18:18:02.745Z,22.70
2018-06-15T18:20:30.962Z,22.80
2018-06-15T18:22:59.155Z,22.80
2018-06-15T18:25:27.332Z,22.70
2018-06-15T18:27:55.878Z,22.60
2018-06-15T18:30:24.070Z,22.60
2018-06-15T18:32:52.299Z,22.60
2018-06-15T18:35:20.744Z,22.40
2018-06-15T18:37:48.928Z,22.40
2018-06-15T18:40:17.114Z,22.30
2018-06-15T18:42:46.301Z,22.20
2018-06-15T18:45:14.500Z,22.20
2018-06-15T18:47:42.695Z,22.10
2018-06-15T18:50:10.884Z,22.10
2018-06-15T18:52:39.200Z,22.10
2018-06-15T18:55:08.138Z,22.10
2018-06-15T18:57:36.327Z,22.10
2018-06-15T19:00:04.623Z,22.00
2018-06-15T19:02:32.794Z,22.10
2018-06-15T19:05:00.982Z,22.40
2018-06-15T19:07:29.242Z,21.90
2018-06-15T19:09:57.435Z,21.80
2018-06-15T19:12:25.626Z,21.80
2018-06-15T19:14:53.816Z,21.80
2018-06-15T19:17:22.016Z,21.80
2018-06-15T19:22:18.595Z,21.80
2018-06-15T19:24:46.838Z,21.70
2018-06-15T19:29:42.972Z,21.70
2018-06-15T19:34:39.162Z,21.50
2018-06-15T19:37:07.328Z,21.50
2018-06-15T19:39:35.560Z,21.50
2018-06-15T19:42:03.750Z,21.50
2018-06-15T19:44:31.947Z,21.30
2018-06-15T19:47:00.135Z,21.20
2018-06-15T19:49:28.326Z,21.00
2018-06-15T19:51:56.526Z,20.80
2018-06-15T19:54:24.975Z,20.90
2018-06-15T19:56:53.372Z,20.80
2018-06-15T19:59:21.694Z,20.60
2018-06-15T20:01:49.907Z,20.50
2018-06-15T20:04:18.091Z,20.30
2018-06-15T20:06:46.307Z,20.10
2018-06-15T20:09:14.504Z,20.00
2018-06-15T20:11:42.702Z,19.80
2018-06-15T20:14:10.989Z,19.80
2018-06-15T20:16:39.179Z,19.70
2018-06-15T20:19:07.413Z,19.50
2018-06-15T20:21:35.558Z,19.40
2018-06-15T20:24:03.767Z,19.20
2018-06-15T20:26:31.945Z,19.00
2018-06-15T20:29:00.145Z,19.00
2018-06-15T20:31:28.340Z,18.90
2018-06-15T20:36:24.659Z,19.00
2018-06-15T20:38:52.803Z,19.00
2018-06-15T20:41:21.077Z,19.00
2018-06-15T20:43:49.283Z,18.90
2018-06-15T20:46:17.468Z,18.80
2018-06-15T20:48:45.687Z,18.60
2018-06-15T20:51:13.893Z,18.50
2018-06-15T20:53:42.095Z,18.30
2018-06-15T20:56:10.312Z,18.20
2018-06-15T20:58:38.514Z,18.20
2018-06-15T21:01:07.484Z,18.00
2018-06-15T21:03:35.951Z,18.00
2018-06-15T21:06:04.801Z,18.00
2018-06-15T21:08:33.301Z,18.20
2018-06-15T21:11:01.903Z,17.90
2018-06-15T21:13:30.089Z,17.70
2018-06-15T21:15:58.327Z,17.50
2018-06-15T21:20:54.482Z,17.50
2018-06-15T21:25:50.912Z,17.30
2018-06-15T21:28:19.094Z,17.30
2018-06-15T21:33:15.262Z,17.30
2018-06-15T21:35:43.499Z,17.30
2018-06-15T21:38:11.697Z,17.20
2018-06-15T21:40:40.000Z,17.20
2018-06-15T21:43:08.212Z,17.10
2018-06-15T21:45:37.515Z,17.00
2018-06-15T21:48:05.757Z,17.00
2018-06-15T21:50:33.958Z,16.90
2018-06-15T21:53:02.498Z,16.70
2018-06-15T21:55:30.738Z,16.60
2018-06-15T22:00:27.768Z,16.50
2018-06-15T22:02:56.070Z,16.40
2018-06-15T22:05:24.258Z,16.40
2018-06-15T22:10:20.951Z,16.10
2018-06-15T22:15:55.726Z,16.10
2018-06-15T23:38:05.429Z,14.10
2018-06-15T23:40:33.624Z,14.50
2018-06-15T23:43:01.791Z,14.40
2018-06-15T23:45:29.998Z,14.60
2018-06-15T23:47:58.178Z,14.80
2018-06-15T23:50:26.375Z,14.80
2018-06-15T23:52:54.571Z,14.80
2018-06-15T23:55:22.756Z,14.90
2018-06-15T23:57:51.109Z,14.80
